sensor_id;sensor_type;location;lat;lon;timestamp;P1;durP1;ratioP1;P2;durP2;ratioP2
35330;SDS011;21441;52.190;20.910;2023-11-19T00:01:50;52.40;;;27.02;;
35330;SDS011;21441;52.190;20.910;2023-11-19T00:04:17;49.70;;;25.65;;
35330;SDS011;21441;52.190;20.910;2023-11-19T00:06:44;46.28;;;25.42;;
35330;SDS011;21441;52.190;20.910;2023-11-19T00:09:11;52.72;;;28.60;;
35330;SDS011;21441;52.190;20.910;2023-11-19T00:12:06;42.63;;;26.25;;
35330;SDS011;21441;52.190;20.910;2023-11-19T00:14:34;49.78;;;27.65;;
35330;SDS011;21441;52.190;20.910;2023-11-19T00:17:02;50.17;;;26.52;;
35330;SDS011;21441;52.190;20.910;2023-11-19T00:19:30;43.37;;;25.77;;
35330;SDS011;21441;52.190;20.910;2023-11-19T00:21:57;46.83;;;24.73;;
35330;SDS011;21441;52.190;20.910;2023-11-19T00:24:28;44.92;;;25.65;;
35330;SDS011;21441;52.190;20.910;2023-11-19T00:26:55;48.08;;;25.90;;
35330;SDS011;21441;52.190;20.910;2023-11-19T00:29:23;50.97;;;27.60;;
35330;SDS011;21441;52.190;20.910;2023-11-19T00:31:50;44.97;;;26.33;;
35330;SDS011;21441;52.190;20.910;2023-11-19T00:34:19;45.90;;;27.02;;
35330;SDS011;21441;52.190;20.910;2023-11-19T00:39:15;50.00;;;25.95;;
35330;SDS011;21441;52.190;20.910;2023-11-19T00:41:43;48.65;;;25.95;;
35330;SDS011;21441;52.190;20.910;2023-11-19T00:44:11;48.92;;;27.83;;
35330;SDS011;21441;52.190;20.910;2023-11-19T00:46:38;48.35;;;26.30;;
35330;SDS011;21441;52.190;20.910;2023-11-19T00:49:06;47.50;;;26.08;;
35330;SDS011;21441;52.190;20.910;2023-11-19T00:51:34;50.05;;;27.48;;
35330;SDS011;21441;52.190;20.910;2023-11-19T00:54:01;49.20;;;26.80;;
35330;SDS011;21441;52.190;20.910;2023-11-19T00:56:28;49.63;;;26.70;;
35330;SDS011;21441;52.190;20.910;2023-11-19T00:58:56;50.30;;;27.33;;
35330;SDS011;21441;52.190;20.910;2023-11-19T01:01:22;48.22;;;27.92;;
35330;SDS011;21441;52.190;20.910;2023-11-19T01:03:51;53.60;;;30.13;;
35330;SDS011;21441;52.190;20.910;2023-11-19T01:06:26;49.70;;;26.40;;
35330;SDS011;21441;52.190;20.910;2023-11-19T01:08:55;52.45;;;28.23;;
35330;SDS011;21441;52.190;20.910;2023-11-19T01:11:22;49.55;;;27.95;;
35330;SDS011;21441;52.190;20.910;2023-11-19T01:13:50;50.08;;;28.63;;
35330;SDS011;21441;52.190;20.910;2023-11-19T01:16:18;52.35;;;26.85;;
35330;SDS011;21441;52.190;20.910;2023-11-19T01:18:46;56.05;;;28.30;;
35330;SDS011;21441;52.190;20.910;2023-11-19T01:21:14;51.35;;;29.08;;
35330;SDS011;21441;52.190;20.910;2023-11-19T01:23:41;52.53;;;28.73;;
35330;SDS011;21441;52.190;20.910;2023-11-19T01:26:10;49.45;;;26.67;;
35330;SDS011;21441;52.190;20.910;2023-11-19T01:28:39;51.15;;;28.38;;
35330;SDS011;21441;52.190;20.910;2023-11-19T01:31:10;55.33;;;27.42;;
35330;SDS011;21441;52.190;20.910;2023-11-19T01:33:38;55.88;;;28.25;;
35330;SDS011;21441;52.190;20.910;2023-11-19T01:36:07;58.42;;;30.10;;
35330;SDS011;21441;52.190;20.910;2023-11-19T01:38:34;53.40;;;27.88;;
35330;SDS011;21441;52.190;20.910;2023-11-19T01:41:03;53.58;;;27.42;;
35330;SDS011;21441;52.190;20.910;2023-11-19T01:43:32;57.45;;;30.02;;
35330;SDS011;21441;52.190;20.910;2023-11-19T01:45:59;57.92;;;29.25;;
35330;SDS011;21441;52.190;20.910;2023-11-19T01:48:27;56.78;;;28.85;;
35330;SDS011;21441;52.190;20.910;2023-11-19T01:50:54;56.15;;;29.80;;
35330;SDS011;21441;52.190;20.910;2023-11-19T01:53:22;59.90;;;30.27;;
35330;SDS011;21441;52.190;20.910;2023-11-19T01:55:50;56.35;;;29.20;;
35330;SDS011;21441;52.190;20.910;2023-11-19T01:58:18;59.15;;;30.00;;
35330;SDS011;21441;52.190;20.910;2023-11-19T02:00:47;54.20;;;29.23;;
35330;SDS011;21441;52.190;20.910;2023-11-19T02:03:14;52.47;;;26.90;;
35330;SDS011;21441;52.190;20.910;2023-11-19T02:05:41;57.20;;;30.73;;
35330;SDS011;21441;52.190;20.910;2023-11-19T02:08:09;54.47;;;28.58;;
35330;SDS011;21441;52.190;20.910;2023-11-19T02:10:37;55.83;;;29.63;;
35330;SDS011;21441;52.190;20.910;2023-11-19T02:13:04;50.55;;;26.05;;
35330;SDS011;21441;52.190;20.910;2023-11-19T02:15:32;51.33;;;24.80;;
35330;SDS011;21441;52.190;20.910;2023-11-19T02:18:18;51.25;;;25.55;;
35330;SDS011;21441;52.190;20.910;2023-11-19T02:20:47;50.42;;;25.42;;
35330;SDS011;21441;52.190;20.910;2023-11-19T02:23:15;56.92;;;26.58;;
35330;SDS011;21441;52.190;20.910;2023-11-19T02:25:43;53.47;;;27.58;;
35330;SDS011;21441;52.190;20.910;2023-11-19T02:28:16;56.42;;;27.25;;
35330;SDS011;21441;52.190;20.910;2023-11-19T02:30:44;52.38;;;27.10;;
35330;SDS011;21441;52.190;20.910;2023-11-19T02:33:11;53.70;;;24.55;;
35330;SDS011;21441;52.190;20.910;2023-11-19T02:35:38;52.95;;;26.98;;
35330;SDS011;21441;52.190;20.910;2023-11-19T02:38:06;53.42;;;26.33;;
35330;SDS011;21441;52.190;20.910;2023-11-19T02:40:33;47.85;;;25.80;;
35330;SDS011;21441;52.190;20.910;2023-11-19T02:43:01;51.22;;;25.08;;
35330;SDS011;21441;52.190;20.910;2023-11-19T02:45:31;49.83;;;27.40;;
35330;SDS011;21441;52.190;20.910;2023-11-19T02:47:59;50.90;;;24.23;;
35330;SDS011;21441;52.190;20.910;2023-11-19T02:50:28;45.78;;;24.48;;
35330;SDS011;21441;52.190;20.910;2023-11-19T02:52:55;48.58;;;24.98;;
35330;SDS011;21441;52.190;20.910;2023-11-19T02:55:22;49.75;;;25.60;;
35330;SDS011;21441;52.190;20.910;2023-11-19T02:57:50;53.63;;;26.50;;
35330;SDS011;21441;52.190;20.910;2023-11-19T03:00:19;49.28;;;26.02;;
35330;SDS011;21441;52.190;20.910;2023-11-19T03:02:50;44.75;;;23.45;;
35330;SDS011;21441;52.190;20.910;2023-11-19T03:05:24;53.03;;;26.45;;
35330;SDS011;21441;52.190;20.910;2023-11-19T03:07:56;51.42;;;25.80;;
35330;SDS011;21441;52.190;20.910;2023-11-19T03:10:23;49.97;;;23.77;;
35330;SDS011;21441;52.190;20.910;2023-11-19T03:12:50;48.22;;;25.48;;
35330;SDS011;21441;52.190;20.910;2023-11-19T03:15:17;49.10;;;26.90;;
35330;SDS011;21441;52.190;20.910;2023-11-19T03:17:46;46.00;;;24.70;;
35330;SDS011;21441;52.190;20.910;2023-11-19T03:20:15;46.60;;;23.13;;
35330;SDS011;21441;52.190;20.910;2023-11-19T03:22:42;49.83;;;22.77;;
35330;SDS011;21441;52.190;20.910;2023-11-19T03:25:09;46.33;;;22.70;;
35330;SDS011;21441;52.190;20.910;2023-11-19T03:27:37;49.22;;;23.63;;
35330;SDS011;21441;52.190;20.910;2023-11-19T03:30:07;50.03;;;23.65;;
35330;SDS011;21441;52.190;20.910;2023-11-19T03:32:35;44.67;;;22.23;;
35330;SDS011;21441;52.190;20.910;2023-11-19T03:35:04;42.03;;;22.25;;
35330;SDS011;21441;52.190;20.910;2023-11-19T03:37:36;39.30;;;19.77;;
35330;SDS011;21441;52.190;20.910;2023-11-19T03:40:03;46.00;;;22.75;;
35330;SDS011;21441;52.190;20.910;2023-11-19T03:42:31;45.60;;;22.38;;
35330;SDS011;21441;52.190;20.910;2023-11-19T03:44:58;43.88;;;22.23;;
35330;SDS011;21441;52.190;20.910;2023-11-19T03:47:25;47.58;;;23.30;;
35330;SDS011;21441;52.190;20.910;2023-11-19T03:49:53;44.80;;;21.63;;
35330;SDS011;21441;52.190;20.910;2023-11-19T03:52:21;44.38;;;22.23;;
35330;SDS011;21441;52.190;20.910;2023-11-19T03:54:49;44.28;;;20.77;;
35330;SDS011;21441;52.190;20.910;2023-11-19T03:57:16;47.97;;;23.45;;
35330;SDS011;21441;52.190;20.910;2023-11-19T03:59:43;43.17;;;22.05;;
35330;SDS011;21441;52.190;20.910;2023-11-19T04:02:11;48.30;;;24.23;;
35330;SDS011;21441;52.190;20.910;2023-11-19T04:04:38;44.03;;;22.50;;
35330;SDS011;21441;52.190;20.910;2023-11-19T04:07:05;47.65;;;21.02;;
35330;SDS011;21441;52.190;20.910;2023-11-19T04:09:32;43.60;;;20.80;;
35330;SDS011;21441;52.190;20.910;2023-11-19T04:12:01;44.28;;;22.20;;
35330;SDS011;21441;52.190;20.910;2023-11-19T04:14:28;49.05;;;25.35;;
35330;SDS011;21441;52.190;20.910;2023-11-19T04:16:56;45.95;;;22.15;;
35330;SDS011;21441;52.190;20.910;2023-11-19T04:19:23;51.03;;;23.80;;
35330;SDS011;21441;52.190;20.910;2023-11-19T04:21:50;55.05;;;24.80;;
35330;SDS011;21441;52.190;20.910;2023-11-19T04:24:17;48.58;;;23.63;;
35330;SDS011;21441;52.190;20.910;2023-11-19T04:26:45;49.63;;;23.13;;
35330;SDS011;21441;52.190;20.910;2023-11-19T04:29:14;48.20;;;24.45;;
35330;SDS011;21441;52.190;20.910;2023-11-19T04:31:43;51.33;;;24.63;;
35330;SDS011;21441;52.190;20.910;2023-11-19T04:34:11;49.22;;;21.98;;
35330;SDS011;21441;52.190;20.910;2023-11-19T04:36:38;44.30;;;22.15;;
35330;SDS011;21441;52.190;20.910;2023-11-19T04:39:05;41.10;;;20.58;;
35330;SDS011;21441;52.190;20.910;2023-11-19T04:41:35;45.25;;;22.77;;
35330;SDS011;21441;52.190;20.910;2023-11-19T04:44:02;43.15;;;22.80;;
35330;SDS011;21441;52.190;20.910;2023-11-19T04:46:30;45.10;;;21.58;;
35330;SDS011;21441;52.190;20.910;2023-11-19T04:48:57;50.92;;;23.23;;
35330;SDS011;21441;52.190;20.910;2023-11-19T04:51:25;44.55;;;21.05;;
35330;SDS011;21441;52.190;20.910;2023-11-19T04:53:51;44.10;;;21.23;;
35330;SDS011;21441;52.190;20.910;2023-11-19T04:56:19;46.58;;;23.45;;
35330;SDS011;21441;52.190;20.910;2023-11-19T04:58:48;46.70;;;24.93;;
35330;SDS011;21441;52.190;20.910;2023-11-19T05:01:18;46.05;;;22.88;;
35330;SDS011;21441;52.190;20.910;2023-11-19T05:03:47;46.00;;;21.08;;
35330;SDS011;21441;52.190;20.910;2023-11-19T05:06:14;46.78;;;23.52;;
35330;SDS011;21441;52.190;20.910;2023-11-19T05:08:41;46.97;;;24.17;;
35330;SDS011;21441;52.190;20.910;2023-11-19T05:11:08;47.20;;;22.50;;
35330;SDS011;21441;52.190;20.910;2023-11-19T05:14:06;46.63;;;21.27;;
35330;SDS011;21441;52.190;20.910;2023-11-19T05:16:34;50.47;;;22.67;;
35330;SDS011;21441;52.190;20.910;2023-11-19T05:19:03;44.95;;;22.08;;
35330;SDS011;21441;52.190;20.910;2023-11-19T05:21:30;50.75;;;23.45;;
35330;SDS011;21441;52.190;20.910;2023-11-19T05:23:57;49.20;;;23.42;;
35330;SDS011;21441;52.190;20.910;2023-11-19T05:26:24;43.25;;;21.65;;
35330;SDS011;21441;52.190;20.910;2023-11-19T05:28:51;51.92;;;24.60;;
35330;SDS011;21441;52.190;20.910;2023-11-19T05:31:18;50.13;;;22.92;;
35330;SDS011;21441;52.190;20.910;2023-11-19T05:33:45;52.08;;;23.98;;
35330;SDS011;21441;52.190;20.910;2023-11-19T05:36:14;53.17;;;25.27;;
35330;SDS011;21441;52.190;20.910;2023-11-19T05:38:41;60.65;;;27.45;;
35330;SDS011;21441;52.190;20.910;2023-11-19T05:41:08;58.33;;;27.60;;
35330;SDS011;21441;52.190;20.910;2023-11-19T05:43:35;54.45;;;24.35;;
35330;SDS011;21441;52.190;20.910;2023-11-19T05:46:03;49.15;;;21.98;;
35330;SDS011;21441;52.190;20.910;2023-11-19T05:48:30;51.30;;;23.63;;
35330;SDS011;21441;52.190;20.910;2023-11-19T05:50:58;51.83;;;23.48;;
35330;SDS011;21441;52.190;20.910;2023-11-19T05:53:26;49.33;;;22.60;;
35330;SDS011;21441;52.190;20.910;2023-11-19T05:55:54;53.95;;;25.20;;
35330;SDS011;21441;52.190;20.910;2023-11-19T05:58:22;54.88;;;23.55;;
35330;SDS011;21441;52.190;20.910;2023-11-19T06:00:52;48.05;;;22.67;;
35330;SDS011;21441;52.190;20.910;2023-11-19T06:03:19;46.17;;;21.88;;
35330;SDS011;21441;52.190;20.910;2023-11-19T06:05:47;43.08;;;20.00;;
35330;SDS011;21441;52.190;20.910;2023-11-19T06:08:14;40.88;;;20.55;;
35330;SDS011;21441;52.190;20.910;2023-11-19T06:10:43;31.27;;;16.58;;
35330;SDS011;21441;52.190;20.910;2023-11-19T06:13:12;31.00;;;15.60;;
35330;SDS011;21441;52.190;20.910;2023-11-19T06:15:40;33.95;;;16.83;;
35330;SDS011;21441;52.190;20.910;2023-11-19T06:18:07;35.65;;;17.83;;
35330;SDS011;21441;52.190;20.910;2023-11-19T06:20:35;29.50;;;14.93;;
35330;SDS011;21441;52.190;20.910;2023-11-19T06:23:02;34.70;;;17.20;;
35330;SDS011;21441;52.190;20.910;2023-11-19T06:25:29;34.25;;;16.05;;
35330;SDS011;21441;52.190;20.910;2023-11-19T06:27:58;25.58;;;13.35;;
35330;SDS011;21441;52.190;20.910;2023-11-19T06:30:25;28.38;;;14.98;;
35330;SDS011;21441;52.190;20.910;2023-11-19T06:32:53;26.92;;;14.27;;
35330;SDS011;21441;52.190;20.910;2023-11-19T06:35:20;31.42;;;15.13;;
35330;SDS011;21441;52.190;20.910;2023-11-19T06:37:48;28.13;;;15.13;;
35330;SDS011;21441;52.190;20.910;2023-11-19T06:40:14;27.00;;;14.65;;
35330;SDS011;21441;52.190;20.910;2023-11-19T06:42:42;22.35;;;13.38;;
35330;SDS011;21441;52.190;20.910;2023-11-19T06:45:11;28.67;;;15.05;;
35330;SDS011;21441;52.190;20.910;2023-11-19T06:47:38;25.98;;;14.98;;
35330;SDS011;21441;52.190;20.910;2023-11-19T06:55:03;18.52;;;11.35;;
35330;SDS011;21441;52.190;20.910;2023-11-19T06:57:32;18.67;;;11.50;;
35330;SDS011;21441;52.190;20.910;2023-11-19T06:59:59;17.52;;;11.05;;
35330;SDS011;21441;52.190;20.910;2023-11-19T07:02:28;17.83;;;10.02;;
35330;SDS011;21441;52.190;20.910;2023-11-19T07:04:55;18.70;;;10.90;;
35330;SDS011;21441;52.190;20.910;2023-11-19T07:07:22;16.40;;;9.90;;
35330;SDS011;21441;52.190;20.910;2023-11-19T07:09:49;20.08;;;14.00;;
35330;SDS011;21441;52.190;20.910;2023-11-19T07:12:16;16.92;;;12.32;;
35330;SDS011;21441;52.190;20.910;2023-11-19T07:14:43;16.63;;;12.38;;
35330;SDS011;21441;52.190;20.910;2023-11-19T07:17:10;16.92;;;12.82;;
35330;SDS011;21441;52.190;20.910;2023-11-19T07:19:39;19.50;;;13.30;;
35330;SDS011;21441;52.190;20.910;2023-11-19T07:22:06;16.25;;;11.85;;
35330;SDS011;21441;52.190;20.910;2023-11-19T07:24:33;17.15;;;12.82;;
35330;SDS011;21441;52.190;20.910;2023-11-19T07:27:00;20.23;;;14.07;;
35330;SDS011;21441;52.190;20.910;2023-11-19T07:29:29;20.60;;;12.65;;
35330;SDS011;21441;52.190;20.910;2023-11-19T07:31:57;18.25;;;11.90;;
35330;SDS011;21441;52.190;20.910;2023-11-19T07:34:24;16.95;;;10.88;;
35330;SDS011;21441;52.190;20.910;2023-11-19T07:36:53;19.50;;;11.85;;
35330;SDS011;21441;52.190;20.910;2023-11-19T07:39:22;19.75;;;12.57;;
35330;SDS011;21441;52.190;20.910;2023-11-19T07:41:49;18.48;;;12.43;;
35330;SDS011;21441;52.190;20.910;2023-11-19T07:44:16;18.65;;;12.25;;
35330;SDS011;21441;52.190;20.910;2023-11-19T07:46:44;19.05;;;12.73;;
35330;SDS011;21441;52.190;20.910;2023-11-19T07:49:11;22.10;;;13.20;;
35330;SDS011;21441;52.190;20.910;2023-11-19T07:51:47;18.35;;;12.38;;
35330;SDS011;21441;52.190;20.910;2023-11-19T07:54:15;17.55;;;10.98;;
35330;SDS011;21441;52.190;20.910;2023-11-19T07:56:42;19.02;;;12.07;;
35330;SDS011;21441;52.190;20.910;2023-11-19T07:59:09;19.73;;;12.07;;
35330;SDS011;21441;52.190;20.910;2023-11-19T08:01:37;21.50;;;12.52;;
35330;SDS011;21441;52.190;20.910;2023-11-19T08:04:04;21.98;;;12.60;;
35330;SDS011;21441;52.190;20.910;2023-11-19T08:06:31;21.25;;;12.57;;
35330;SDS011;21441;52.190;20.910;2023-11-19T08:08:58;19.40;;;12.27;;
35330;SDS011;21441;52.190;20.910;2023-11-19T08:11:27;21.70;;;11.88;;
35330;SDS011;21441;52.190;20.910;2023-11-19T08:13:54;22.13;;;13.05;;
35330;SDS011;21441;52.190;20.910;2023-11-19T08:16:21;21.98;;;13.35;;
35330;SDS011;21441;52.190;20.910;2023-11-19T08:18:48;22.40;;;12.85;;
35330;SDS011;21441;52.190;20.910;2023-11-19T08:21:15;22.10;;;13.35;;
35330;SDS011;21441;52.190;20.910;2023-11-19T08:23:42;21.15;;;12.85;;
35330;SDS011;21441;52.190;20.910;2023-11-19T08:26:09;23.50;;;12.65;;
35330;SDS011;21441;52.190;20.910;2023-11-19T08:28:38;17.40;;;10.18;;
35330;SDS011;21441;52.190;20.910;2023-11-19T08:31:05;21.88;;;12.75;;
35330;SDS011;21441;52.190;20.910;2023-11-19T08:33:32;23.27;;;14.35;;
35330;SDS011;21441;52.190;20.910;2023-11-19T08:35:59;23.08;;;13.05;;
35330;SDS011;21441;52.190;20.910;2023-11-19T08:38:29;22.58;;;12.70;;
35330;SDS011;21441;52.190;20.910;2023-11-19T08:40:56;22.15;;;13.52;;
35330;SDS011;21441;52.190;20.910;2023-11-19T08:43:25;22.13;;;13.55;;
35330;SDS011;21441;52.190;20.910;2023-11-19T08:45:53;21.80;;;13.02;;
35330;SDS011;21441;52.190;20.910;2023-11-19T08:48:20;20.65;;;12.35;;
35330;SDS011;21441;52.190;20.910;2023-11-19T08:50:48;24.58;;;14.45;;
35330;SDS011;21441;52.190;20.910;2023-11-19T08:53:15;21.13;;;12.60;;
35330;SDS011;21441;52.190;20.910;2023-11-19T08:55:42;21.95;;;12.40;;
35330;SDS011;21441;52.190;20.910;2023-11-19T08:58:09;24.23;;;16.58;;
35330;SDS011;21441;52.190;20.910;2023-11-19T09:00:36;22.48;;;15.80;;
35330;SDS011;21441;52.190;20.910;2023-11-19T09:03:05;22.42;;;16.20;;
35330;SDS011;21441;52.190;20.910;2023-11-19T09:06:00;23.05;;;16.48;;
35330;SDS011;21441;52.190;20.910;2023-11-19T09:08:27;21.73;;;16.30;;
35330;SDS011;21441;52.190;20.910;2023-11-19T09:10:55;23.92;;;16.52;;
35330;SDS011;21441;52.190;20.910;2023-11-19T09:13:22;23.95;;;16.95;;
35330;SDS011;21441;52.190;20.910;2023-11-19T09:15:49;25.23;;;18.10;;
35330;SDS011;21441;52.190;20.910;2023-11-19T09:18:18;22.13;;;17.05;;
35330;SDS011;21441;52.190;20.910;2023-11-19T09:20:45;22.52;;;16.05;;
35330;SDS011;21441;52.190;20.910;2023-11-19T09:23:13;25.58;;;18.40;;
35330;SDS011;21441;52.190;20.910;2023-11-19T09:25:40;18.93;;;13.50;;
35330;SDS011;21441;52.190;20.910;2023-11-19T09:28:07;18.85;;;14.25;;
35330;SDS011;21441;52.190;20.910;2023-11-19T09:30:34;21.67;;;16.10;;
35330;SDS011;21441;52.190;20.910;2023-11-19T09:33:02;22.77;;;16.73;;
35330;SDS011;21441;52.190;20.910;2023-11-19T09:35:30;22.70;;;16.13;;
35330;SDS011;21441;52.190;20.910;2023-11-19T09:37:57;23.02;;;16.90;;
35330;SDS011;21441;52.190;20.910;2023-11-19T09:40:25;22.30;;;16.63;;
35330;SDS011;21441;52.190;20.910;2023-11-19T09:42:54;24.70;;;17.08;;
35330;SDS011;21441;52.190;20.910;2023-11-19T09:45:21;23.25;;;14.35;;
35330;SDS011;21441;52.190;20.910;2023-11-19T09:47:52;22.60;;;13.82;;
35330;SDS011;21441;52.190;20.910;2023-11-19T09:50:22;25.08;;;14.93;;
35330;SDS011;21441;52.190;20.910;2023-11-19T09:52:51;21.15;;;12.80;;
35330;SDS011;21441;52.190;20.910;2023-11-19T09:55:18;23.60;;;15.13;;
35330;SDS011;21441;52.190;20.910;2023-11-19T09:57:46;22.15;;;12.93;;
35330;SDS011;21441;52.190;20.910;2023-11-19T10:00:15;21.60;;;13.18;;
35330;SDS011;21441;52.190;20.910;2023-11-19T10:02:44;23.13;;;13.55;;
35330;SDS011;21441;52.190;20.910;2023-11-19T10:05:12;25.38;;;14.40;;
35330;SDS011;21441;52.190;20.910;2023-11-19T10:07:40;23.52;;;14.88;;
35330;SDS011;21441;52.190;20.910;2023-11-19T10:10:09;21.55;;;14.05;;
35330;SDS011;21441;52.190;20.910;2023-11-19T10:12:40;17.02;;;10.73;;
35330;SDS011;21441;52.190;20.910;2023-11-19T10:15:07;19.38;;;12.15;;
35330;SDS011;21441;52.190;20.910;2023-11-19T10:17:46;23.63;;;14.15;;
35330;SDS011;21441;52.190;20.910;2023-11-19T10:20:13;24.55;;;14.15;;
35330;SDS011;21441;52.190;20.910;2023-11-19T10:22:41;24.55;;;14.45;;
35330;SDS011;21441;52.190;20.910;2023-11-19T10:25:18;25.63;;;14.95;;
35330;SDS011;21441;52.190;20.910;2023-11-19T10:27:49;22.92;;;15.05;;
35330;SDS011;21441;52.190;20.910;2023-11-19T10:30:17;30.65;;;17.63;;
35330;SDS011;21441;52.190;20.910;2023-11-19T10:32:44;23.70;;;14.35;;
35330;SDS011;21441;52.190;20.910;2023-11-19T10:35:11;21.15;;;12.65;;
35330;SDS011;21441;52.190;20.910;2023-11-19T10:37:39;23.33;;;13.48;;
35330;SDS011;21441;52.190;20.910;2023-11-19T10:40:06;21.98;;;13.77;;
35330;SDS011;21441;52.190;20.910;2023-11-19T10:42:37;24.55;;;14.25;;
35330;SDS011;21441;52.190;20.910;2023-11-19T10:45:04;30.20;;;16.60;;
35330;SDS011;21441;52.190;20.910;2023-11-19T10:47:48;26.55;;;15.32;;
35330;SDS011;21441;52.190;20.910;2023-11-19T10:50:16;27.85;;;15.43;;
35330;SDS011;21441;52.190;20.910;2023-11-19T10:52:43;27.20;;;16.40;;
35330;SDS011;21441;52.190;20.910;2023-11-19T10:55:13;27.10;;;15.63;;
35330;SDS011;21441;52.190;20.910;2023-11-19T10:57:46;27.75;;;15.38;;
35330;SDS011;21441;52.190;20.910;2023-11-19T11:00:16;29.30;;;16.05;;
35330;SDS011;21441;52.190;20.910;2023-11-19T11:02:49;28.35;;;15.65;;
35330;SDS011;21441;52.190;20.910;2023-11-19T11:05:21;28.95;;;15.10;;
35330;SDS011;21441;52.190;20.910;2023-11-19T11:07:50;29.13;;;15.57;;
35330;SDS011;21441;52.190;20.910;2023-11-19T11:10:19;27.02;;;15.45;;
35330;SDS011;21441;52.190;20.910;2023-11-19T11:12:49;26.83;;;15.90;;
35330;SDS011;21441;52.190;20.910;2023-11-19T11:15:21;25.48;;;15.77;;
35330;SDS011;21441;52.190;20.910;2023-11-19T11:17:49;29.63;;;15.43;;
35330;SDS011;21441;52.190;20.910;2023-11-19T11:20:21;23.30;;;15.13;;
35330;SDS011;21441;52.190;20.910;2023-11-19T11:22:52;28.08;;;15.63;;
35330;SDS011;21441;52.190;20.910;2023-11-19T11:25:38;23.50;;;14.73;;
35330;SDS011;21441;52.190;20.910;2023-11-19T11:28:20;26.17;;;16.63;;
35330;SDS011;21441;52.190;20.910;2023-11-19T11:31:08;27.65;;;16.45;;
35330;SDS011;21441;52.190;20.910;2023-11-19T11:33:48;24.48;;;14.45;;
35330;SDS011;21441;52.190;20.910;2023-11-19T11:36:31;25.90;;;16.90;;
35330;SDS011;21441;52.190;20.910;2023-11-19T11:39:08;25.90;;;16.77;;
35330;SDS011;21441;52.190;20.910;2023-11-19T11:41:35;26.38;;;15.15;;
35330;SDS011;21441;52.190;20.910;2023-11-19T11:44:04;28.85;;;19.67;;
35330;SDS011;21441;52.190;20.910;2023-11-19T11:49:27;28.90;;;20.05;;
35330;SDS011;21441;52.190;20.910;2023-11-19T11:52:02;28.30;;;19.23;;
35330;SDS011;21441;52.190;20.910;2023-11-19T11:54:30;30.55;;;21.63;;
35330;SDS011;21441;52.190;20.910;2023-11-19T11:57:02;29.58;;;20.77;;
35330;SDS011;21441;52.190;20.910;2023-11-19T11:59:41;24.10;;;15.98;;
35330;SDS011;21441;52.190;20.910;2023-11-19T12:02:10;25.80;;;16.13;;
35330;SDS011;21441;52.190;20.910;2023-11-19T12:04:39;25.63;;;14.83;;
35330;SDS011;21441;52.190;20.910;2023-11-19T12:07:06;27.15;;;16.20;;
35330;SDS011;21441;52.190;20.910;2023-11-19T12:09:39;27.90;;;16.35;;
35330;SDS011;21441;52.190;20.910;2023-11-19T12:12:07;26.63;;;15.38;;
35330;SDS011;21441;52.190;20.910;2023-11-19T12:17:42;25.05;;;15.45;;
35330;SDS011;21441;52.190;20.910;2023-11-19T12:20:15;26.83;;;16.05;;
35330;SDS011;21441;52.190;20.910;2023-11-19T12:22:43;29.42;;;16.52;;
35330;SDS011;21441;52.190;20.910;2023-11-19T12:25:15;28.17;;;15.80;;
35330;SDS011;21441;52.190;20.910;2023-11-19T12:27:43;27.70;;;15.55;;
35330;SDS011;21441;52.190;20.910;2023-11-19T12:30:14;29.25;;;15.98;;
35330;SDS011;21441;52.190;20.910;2023-11-19T12:32:44;28.85;;;16.15;;
35330;SDS011;21441;52.190;20.910;2023-11-19T12:35:12;28.88;;;17.23;;
35330;SDS011;21441;52.190;20.910;2023-11-19T12:37:40;25.67;;;17.02;;
35330;SDS011;21441;52.190;20.910;2023-11-19T12:40:14;27.48;;;15.98;;
35330;SDS011;21441;52.190;20.910;2023-11-19T12:42:43;30.00;;;17.05;;
35330;SDS011;21441;52.190;20.910;2023-11-19T12:45:10;29.05;;;17.52;;
35330;SDS011;21441;52.190;20.910;2023-11-19T12:47:39;27.55;;;16.25;;
35330;SDS011;21441;52.190;20.910;2023-11-19T12:50:07;30.10;;;16.45;;
35330;SDS011;21441;52.190;20.910;2023-11-19T12:52:36;28.38;;;16.25;;
35330;SDS011;21441;52.190;20.910;2023-11-19T12:55:04;27.10;;;15.30;;
35330;SDS011;21441;52.190;20.910;2023-11-19T12:57:36;28.23;;;16.65;;
35330;SDS011;21441;52.190;20.910;2023-11-19T13:00:05;26.77;;;16.80;;
35330;SDS011;21441;52.190;20.910;2023-11-19T13:02:47;27.58;;;15.30;;
35330;SDS011;21441;52.190;20.910;2023-11-19T13:05:23;30.83;;;16.33;;
35330;SDS011;21441;52.190;20.910;2023-11-19T13:07:51;27.00;;;14.57;;
35330;SDS011;21441;52.190;20.910;2023-11-19T13:10:24;24.52;;;15.20;;
35330;SDS011;21441;52.190;20.910;2023-11-19T13:13:04;30.23;;;17.13;;
35330;SDS011;21441;52.190;20.910;2023-11-19T13:16:03;27.50;;;16.65;;
35330;SDS011;21441;52.190;20.910;2023-11-19T13:18:32;28.77;;;16.90;;
35330;SDS011;21441;52.190;20.910;2023-11-19T13:20:59;26.00;;;16.50;;
35330;SDS011;21441;52.190;20.910;2023-11-19T13:23:27;25.52;;;16.10;;
35330;SDS011;21441;52.190;20.910;2023-11-19T13:25:54;27.70;;;15.55;;
35330;SDS011;21441;52.190;20.910;2023-11-19T13:28:21;28.00;;;15.88;;
35330;SDS011;21441;52.190;20.910;2023-11-19T13:30:49;29.13;;;15.77;;
35330;SDS011;21441;52.190;20.910;2023-11-19T13:33:17;28.17;;;16.58;;
35330;SDS011;21441;52.190;20.910;2023-11-19T13:35:46;26.60;;;16.23;;
35330;SDS011;21441;52.190;20.910;2023-11-19T13:38:13;29.27;;;16.23;;
35330;SDS011;21441;52.190;20.910;2023-11-19T13:40:40;28.27;;;16.42;;
35330;SDS011;21441;52.190;20.910;2023-11-19T13:43:07;29.20;;;17.02;;
35330;SDS011;21441;52.190;20.910;2023-11-19T13:45:34;29.30;;;16.17;;
35330;SDS011;21441;52.190;20.910;2023-11-19T13:48:01;26.42;;;15.88;;
35330;SDS011;21441;52.190;20.910;2023-11-19T13:50:28;27.83;;;16.40;;
35330;SDS011;21441;52.190;20.910;2023-11-19T13:52:57;26.95;;;16.08;;
35330;SDS011;21441;52.190;20.910;2023-11-19T13:55:24;26.60;;;16.10;;
35330;SDS011;21441;52.190;20.910;2023-11-19T13:57:51;28.92;;;16.90;;
35330;SDS011;21441;52.190;20.910;2023-11-19T14:00:18;26.42;;;15.80;;
35330;SDS011;21441;52.190;20.910;2023-11-19T14:02:48;25.58;;;15.02;;
35330;SDS011;21441;52.190;20.910;2023-11-19T14:05:15;32.97;;;17.77;;
35330;SDS011;21441;52.190;20.910;2023-11-19T14:07:43;29.15;;;16.67;;
35330;SDS011;21441;52.190;20.910;2023-11-19T14:10:15;33.78;;;19.25;;
35330;SDS011;21441;52.190;20.910;2023-11-19T14:12:42;33.38;;;17.85;;
35330;SDS011;21441;52.190;20.910;2023-11-19T14:15:10;31.80;;;18.67;;
35330;SDS011;21441;52.190;20.910;2023-11-19T14:17:39;33.05;;;19.02;;
35330;SDS011;21441;52.190;20.910;2023-11-19T14:20:07;37.58;;;21.70;;
35330;SDS011;21441;52.190;20.910;2023-11-19T14:22:38;33.78;;;19.70;;
35330;SDS011;21441;52.190;20.910;2023-11-19T14:25:06;34.90;;;19.83;;
35330;SDS011;21441;52.190;20.910;2023-11-19T14:27:37;32.95;;;18.90;;
35330;SDS011;21441;52.190;20.910;2023-11-19T14:30:04;35.35;;;19.27;;
35330;SDS011;21441;52.190;20.910;2023-11-19T14:32:33;36.65;;;21.02;;